Terminal Aerodrome Forecast
Issued by NWS

Home | Current Version | Previous Version | Text Only | Print | Product List | Glossary On
Versions: 1 2 3 4 5 6 7 8 9 10 11 12 13 14 15
695
FTUS46 KSGX 211137
TAFSNA
TAF
KSNA 211137Z 2112/2212 29007KT P6SM -SHRA SCT035 BKN100
     FM211700 26010G18KT P6SM SCT035 BKN120
     FM220100 VRB06KT P6SM FEW025 BKN100
     FM221000 14011G18KT P6SM BKN060=

USA.gov is the U.S. government's official web portal to all federal, state and local government web resources and services.